• Join FlightAware (Why Join?)
  • Login
  • US Flag 
10:30PM EDT


 

Airport Tracker/Info


-or-


 

Live Flight TrackerFlight Track Log ✈ DAL3626 ✈ 26-Apr-2013 ✈ KMSP - KSDF

Flight Track Log - Related Links

Times and Time Zones

All times are in EDT time to prevent confusion due to time zone crossing. See the DAL3626 flight status page for this flight to view local times or setup timezone preferences in your user account.

Time Position Orientation Groundspeed Altitude Reporting Facility
EDT Latitude Longitude Course Direction KTS MPH feet Rate Location/Type
11:27AM 44.8333 -93.2167 139° Southeast 170 196 2,600  Level Minneapolis TRACON
11:28AM 44.8203 -93.2033 144° Southeast 182 209 3,100 1,560 Climbing Minneapolis Center
11:29AM 44.7650 -93.1492 145° Southeast 240 276 4,800 2,100 Climbing Minneapolis Center
11:30AM 44.4533 -92.9533 144° Southeast  Level FlightAware Approximate
11:30AM 44.6961 -93.0961 151° Southeast 278 320 7,500  Level Minneapolis Center
11:31AM 44.3607 -92.8493 133° Southeast  Level FlightAware Approximate
11:31AM 44.6233 -93.0408 152° Southeast 295 339 10,300  Level Minneapolis Center
11:32AM 44.2722 -92.7389 144° Southeast  Level FlightAware Approximate
11:32AM 44.5494 -92.9844 151° Southeast 303 349 13,000  Level Minneapolis Center
11:33AM 44.1909 -92.6357 139° Southeast  Level FlightAware Approximate
11:33AM 44.4706 -92.9261 152° Southeast 322 371 14,900  Level Minneapolis Center
11:34AM 44.3792 -92.8586 152° Southeast 374 430 15,800 1,020 Climbing Minneapolis Center
11:35AM 44.2764 -92.7419 141° Southeast 407 468 17,100 1,020 Climbing Minneapolis Center
11:36AM 44.1894 -92.6339 138° Southeast 424 488 18,000 900 Climbing Minneapolis Center
11:37AM 44.0964 -92.5225 139° Southeast 430 495 19,000 960 Climbing Minneapolis Center
11:38AM 44.0039 -92.4097 139° Southeast 440 506 20,000 960 Climbing Minneapolis Center
11:39AM 43.9114 -92.2953 138° Southeast 446 513 21,000 1,020 Climbing Minneapolis Center
11:40AM 43.7983 -92.1583 139° Southeast 451 519 22,200 960 Climbing Minneapolis Center
11:41AM 43.7136 -92.0531 138° Southeast 455 524 23,100 900 Climbing Minneapolis Center
11:42AM 43.6194 -91.9408 139° Southeast 450 518 24,100 960 Climbing Minneapolis Center
11:43AM 43.5258 -91.8286 139° Southeast 450 518 25,100 1,020 Climbing Minneapolis Center
11:44AM 43.4139 -91.6983 140° Southeast 443 510 26,300 960 Climbing Minneapolis Center
11:45AM 43.3203 -91.5844 138° Southeast 448 516 27,100 720 Climbing Minneapolis Center
11:46AM 43.2211 -91.4811 143° Southeast 449 517 27,900 720 Climbing Minneapolis Center
11:47AM 43.1197 -91.3836 145° Southeast 446 513 28,700 720 Climbing Minneapolis Center
11:48AM 43.0317 -91.2633 135° Southeast 457 526 29,500 780 Climbing Minneapolis Center
11:50AM 42.9614 -91.1211 124° Southeast 452 520 30,400 720 Climbing Minneapolis Center
11:51AM 42.8775 -90.9511 124° Southeast 451 519 31,000 300 Climbing Minneapolis Center
11:51AM 42.8372 -90.8647 122° Southeast 453 521 31,000  Level Chicago Center
11:52AM 42.7642 -90.7164 124° Southeast 466 536 31,000  Level Chicago Center
11:53AM 42.6903 -90.5656 124° Southeast 478 550 31,000  Level Chicago Center
11:54AM 42.5997 -90.3836 124° Southeast 485 558 31,000  Level Chicago Center
11:56AM 42.5349 -90.2272 119° Southeast  Level FlightAware Approximate
11:56AM 42.4467 -90.0739 119° Southeast 497 572 31,000  Level Chicago Center
11:57AM 42.3697 -89.9192 124° Southeast 500 575 31,000  Level Chicago Center
11:58AM 42.2858 -89.7514 124° Southeast 504 580 31,000  Level Chicago Center
12:00PM 42.2058 -89.5936 124° Southeast 509 586 31,000  Level Chicago Center
12:01PM 42.1128 -89.4119 125° Southeast 507 583 31,000  Level Chicago Center
12:02PM 42.0361 -89.2617 124° Southeast 512 589 31,000  Level Chicago Center
12:03PM 41.9553 -89.1053 125° Southeast 513 590 31,000  Level Chicago Center
12:04PM 41.8753 -88.9469 124° Southeast 516 594 31,000  Level Chicago Center
12:05PM 41.7769 -88.7586 125° Southeast 517 595 31,000  Level Chicago Center
12:06PM 41.6958 -88.6036 125° Southeast 514 592 31,000  Level Chicago Center
12:07PM 41.6142 -88.4486 125° Southeast 513 590 31,000  Level Chicago Center
12:08PM 41.5022 -88.3594 149° Southeast 477 549 31,000  Level Chicago Center
12:09PM 41.3839 -88.2917 157° South 473 544 31,000  Level Chicago Center
12:10PM 41.2428 -88.2117 157° South 471 542 31,000  Level Chicago Center
12:11PM 41.1247 -88.1444 157° South 470 541 31,000  Level Chicago Center
12:12PM 41.0061 -88.0778 157° South 468 539 31,000  Level Chicago Center
12:13PM 40.8856 -88.0378 166° South 451 519 31,000 -60 Level Chicago Center
12:14PM 40.7406 -87.9953 167° South 447 514 30,900 -840 Descending Chicago Center
12:16PM 40.5025 -87.9333 169° South 471 542 28,600 -1,200 Descending Indianapolis Center
12:17PM 40.3606 -87.8583 158° South 500 575 27,300 -780 Descending Chicago Center
12:18PM 40.2406 -87.7733 152° Southeast 493 567 27,000 -420 Descending Chicago Center
12:19PM 40.1133 -87.6858 152° Southeast 491 565 26,500 -540 Descending Indianapolis Center
12:20PM 39.9922 -87.6011 152° Southeast 491 565 26,000 -540 Descending Indianapolis Center
12:21PM 39.8725 -87.5172 152° Southeast 488 562 25,500 -540 Descending Indianapolis Center
12:22PM 39.7522 -87.4333 152° Southeast 488 562 25,000 -540 Descending Indianapolis Center
12:23PM 39.6322 -87.3497 152° Southeast 487 560 24,500 -600 Descending Indianapolis Center
12:24PM 39.4942 -87.2553 152° Southeast 482 555 23,800 -780 Descending Indianapolis Center
12:25PM 39.3686 -87.1981 161° South 480 552 23,000 -420 Descending Indianapolis Center
12:26PM 39.2444 -87.1442 161° South 472 543 23,000  Level Indianapolis Center
12:27PM 39.1139 -87.0881 162° South 474 545 23,000  Level Indianapolis Center
12:28PM 38.9881 -87.0339 161° South 474 545 23,000 -300 Level Indianapolis Center
12:29PM 38.8653 -86.9814 162° South 464 534 22,400 -1,320 Descending Indianapolis Center
12:30PM 38.7486 -86.9311 161° South 441 507 20,300 -1,920 Descending Indianapolis Center
12:31PM 38.6400 -86.8864 162° South 409 471 18,500 -1,380 Descending Indianapolis Center
12:32PM 38.5389 -86.8425 161° South 383 441 17,500 -1,260 Descending Indianapolis Center
12:33PM 38.4403 -86.8008 162° South 370 426 16,000 -1,500 Descending Indianapolis Center
12:35PM 38.3461 -86.7400 153° Southeast 379 436 14,400 -1,680 Descending Indianapolis Center
12:36PM 38.3350 -86.5786 95° East 387 445 12,600 -1,620 Descending Indianapolis Center
12:37PM 38.3417 -86.4550 86° East 356 410 11,100 -1,500 Descending Indianapolis Center
12:38PM 38.3478 -86.3461 86° East 315 362 9,600 -1,380 Descending Indianapolis Center
12:39PM 38.3528 -86.2508 86° East 280 322 8,300 -1,140 Descending Indianapolis Center
12:40PM 38.3575 -86.1569 86° East 267 307 7,300 -1,020 Descending Indianapolis Center
12:41PM 38.3642 -86.0586 85° East 275 316 6,300 -1,200 Descending Indianapolis Center
12:42PM 38.3692 -85.9603 86° East 277 319 4,900 -1,380 Descending Indianapolis Center
12:43PM 38.3711 -85.8503 89° East 267 307 3,500 -1,020 Descending Indianapolis Center
12:44PM 38.3339 -85.7869 127° Southeast 241 277 2,900 -600 Descending Indianapolis Center